ADDS METAR Data INFO
IDs: Format: Raw Decoded Include TAF

Data at: 1537 UTC 25 Feb 2018

KCQB 251515Z AUTO 15005KT 10SM CLR 04/03 A3010 RMK AO2 T00400028
KCQB 251455Z AUTO 00000KT 7SM BR CLR 03/03 A3010 RMK AO2 T00340028
KCQB 251435Z AUTO 00000KT 7SM CLR 02/02 A3009 RMK AO2 T00180016
KCQB 251415Z AUTO 00000KT 5SM BR SCT002 00/00 A3009 RMK AO2 T10031004
KCQB 251355Z AUTO 00000KT 1/4SM FZFG OVC002 M02/M02 A3008 RMK AO2 T10151017
KCQB 251335Z AUTO 15003KT 1 1/4SM BR BKN002 M02/M02 A3006 RMK AO2 T10191022
KCQB 251315Z AUTO 17003KT 5SM BR CLR M02/M02 A3006 RMK AO2 T10181021
KCQB 251255Z AUTO 00000KT 7SM BR CLR M02/M03 A3005 RMK AO2 T10241027
KCQB 251235Z AUTO 00000KT 7SM CLR M02/M02 A3004 RMK AO2 T10221024
KCQB 251215Z AUTO 00000KT 7SM BR CLR M02/M03 A3004 RMK AO2 T10231026
KCQB 251155Z AUTO 00000KT 5SM BR CLR M02/M02 A3003 RMK AO2 T10201024 10017 21024 70032
KCQB 251135Z AUTO 00000KT 7SM BR CLR M01/M01 A3002 RMK AO2 T10101011
KCQB 251115Z AUTO 00000KT 7SM BR CLR M01/M02 A3002 RMK AO2 T10141017
KCQB 251055Z AUTO 14003KT 7SM CLR M02/M02 A3001 RMK AO2 T10161018
KCQB 251035Z AUTO 13004KT 7SM CLR M02/M02 A3001 RMK AO2 T10171020
KCQB 251015Z AUTO 00000KT 7SM CLR M01/M01 A3001 RMK AO2 T10111013
KCQB 250955Z AUTO 00000KT 10SM CLR M01/M02 A3001 RMK AO2 T10131017
KCQB 250935Z AUTO 00000KT 7SM CLR M01/M01 A3000 RMK AO2 T10111015
KCQB 250915Z AUTO 00000KT 10SM CLR 00/M01 A3001 RMK AO2 T10011006
KCQB 250855Z AUTO 00000KT 10SM CLR 00/00 A3001 RMK AO2 T00031001
KCQB 250835Z AUTO 00000KT 10SM CLR 00/00 A3002 RMK AO2 T00011004
KCQB 250815Z AUTO 00000KT 10SM CLR 00/M01 A3002 RMK AO2 T00011006
KCQB 250755Z AUTO 20003KT 10SM CLR 00/00 A3002 RMK AO2 T00031004
KCQB 250735Z AUTO 20004KT 10SM CLR 01/00 A3003 RMK AO2 T00101003
KCQB 250715Z AUTO 20004KT 10SM CLR 01/00 A3003 RMK AO2 T00110002
KCQB 250655Z AUTO 20004KT 10SM CLR 01/00 A3003 RMK AO2 T00061002
KCQB 250635Z AUTO 21005KT 10SM CLR 00/00 A3002 RMK AO2 T00031005
KCQB 250615Z AUTO 20005KT 10SM CLR 01/00 A3002 RMK AO2 T00130002
KCQB 250555Z AUTO 19005KT 10SM CLR 01/00 A3002 RMK AO2 T00101001 10091 20010
KCQB 250535Z AUTO 19004KT 10SM CLR 01/00 A3002 RMK AO2 T00141001
KCQB 250515Z AUTO 18004KT 10SM CLR 02/00 A3002 RMK AO2 T00171000
KCQB 250455Z AUTO 18004KT 10SM CLR 02/00 A3002 RMK AO2 T00210003
KCQB 250435Z AUTO 20004KT 10SM CLR 03/00 A3002 RMK AO2 T00270003
KCQB 250415Z AUTO 19003KT 10SM CLR 03/00 A3001 RMK AO2 T00270001
KCQB 250355Z AUTO 00000KT 10SM CLR 04/00 A3001 RMK AO2 T00400005
KCQB 250335Z AUTO 00000KT 10SM CLR 04/00 A3001 RMK AO2 T00420004
KCQB 250315Z AUTO 00000KT 10SM CLR 04/00 A3001 RMK AO2 T00400005
KCQB 250255Z AUTO 00000KT 10SM CLR 05/01 A3000 RMK AO2 T00450006
KCQB 250235Z AUTO 28003KT 10SM CLR 04/01 A2998 RMK AO2 T00440007
KCQB 250215Z AUTO 30005KT 10SM CLR 05/01 A2998 RMK AO2 T00470010
KCQB 250155Z AUTO 31007KT 10SM CLR 06/02 A2997 RMK AO2 T00550018
KCQB 250135Z AUTO 30008KT 10SM CLR 06/03 A2997 RMK AO2 T00590031
KCQB 250110Z AUTO 31006KT 10SM SCT035 06/04 A2996 RMK AO2 T00640036
KCQB 250055Z AUTO 32004KT 10SM SCT033 SCT038 06/03 A2995 RMK AO2 T00590035
KCQB 250035Z AUTO 33004KT 10SM SCT031 06/04 A2994 RMK AO2 T00630035
KCQB 250015Z AUTO 34007KT 10SM SCT038 07/04 A2993 RMK AO2 T00730038
KCQB 242355Z AUTO 29011KT 10SM OVC038 09/04 A2992 RMK AO2 T00930037 10122 20061 401220035
KCQB 242335Z AUTO 28012KT 10SM OVC038 10/04 A2991 RMK AO2 T00970037
KCQB 242315Z AUTO 29012G19KT 10SM BKN036 BKN041 10/04 A2989 RMK AO2 T00970040
KCQB 242255Z AUTO 29012KT 10SM SCT029 BKN034 BKN040 10/04 A2987 RMK AO2 T01040039
KCQB 242235Z AUTO 30014KT 10SM BKN029 11/04 A2987 RMK AO2 T01100044
KCQB 242215Z AUTO 28016KT 10SM BKN029 BKN033 11/05 A2985 RMK AO2 T01060047
KCQB 242155Z AUTO 28011KT 10SM BKN026 BKN032 10/04 A2984 RMK AO2 T00990045
KCQB 242135Z AUTO 29017KT 10SM OVC024 10/05 A2984 RMK AO2 T01050050
KCQB 242120Z AUTO 27015G21KT 10SM BKN024 12/06 A2983 RMK AO2 T01190058
KCQB 242055Z AUTO 27012G19KT 10SM SCT020 11/06 A2981 RMK AO2 T01130059
KCQB 242035Z AUTO 26012KT 10SM BKN020 11/06 A2981 RMK AO2 T01110060
KCQB 242015Z AUTO 28013G19KT 10SM BKN018 11/06 A2980 RMK AO2 T01110064
KCQB 241955Z AUTO 27013G20KT 10SM BKN018 11/07 A2980 RMK AO2
KCQB 241935Z AUTO 29013KT 10SM BKN014 10/08 A2981 RMK AO2 T01000078
KCQB 241915Z AUTO 29011KT 10SM BKN008 09/07 A2982 RMK AO2 T00870070
KCQB 241855Z AUTO 29010KT 10SM OVC008 08/07 A2983 RMK AO2 T00850074
KCQB 241835Z AUTO 27010KT 10SM OVC006 07/07 A2983 RMK AO2 T00750066
KCQB 241815Z AUTO 29009KT 10SM OVC006 07/06 A2984 RMK AO2
KCQB 241755Z AUTO 30006KT 10SM OVC004 06/06 A2986 RMK AO2 LTG DSNT E T00590057 10063 20035 60032
KCQB 241735Z AUTO 29008KT 10SM OVC004 05/05 A2987 RMK AO2 T00470046
KCQB 241715Z AUTO 29010KT 10SM OVC004 04/04 A2988 RMK AO2 LTG DSNT NE T00420041
KCQB 241655Z AUTO 29010KT 10SM BKN004 BKN008 OVC037 04/04 A2987 RMK AO2 P0001 T00390038
KCQB 241635Z AUTO 30005KT 4SM -RA BR BKN006 BKN012 OVC037 04/04 A2987 RMK AO2 LTG DSNT E AND SE P0001 T00370036
KCQB 241615Z AUTO 30006KT 7SM VCTSRA BR BKN004 BKN009 OVC037 04/04 A2986 RMK AO2 LTG DSNT E THRU S T00370037
KCQB 241555Z AUTO 29010KT 5SM VCTSRA BR OVC002 04/04 A2986 RMK AO2 LTG DSNT NE THRU S P0022 T00370037
KCQB 241535Z AUTO 01004KT 7SM -TSRA BKN002 BKN018 OVC095 04/04 A2983 RMK AO2 LTG DSNT ALQDS P0019
KCQB 241515Z AUTO 34009KT 1 1/4SM -VCTSSN BR OVC002 04/04 A2986 RMK AO2 LTG DSNT ALQDS P0017
KCQB 241455Z AUTO 30003KT 3/4SM -TSSN BR OVC002 04/04 A2989 RMK AO2 LTG DSNT ALQDS P0009 T00370037 60009
KCQB 241435Z AUTO 01005KT 3/4SM -VCTSRA BR OVC002 04/04 A2984 RMK AO2 LTG DSNT ALQDS T00360036
KCQB 241415Z AUTO 03003KT 1/2SM FG OVC002 04/04 A2981 RMK AO2 LTG DSNT SE THRU W T00350035
KCQB 241355Z AUTO 04005KT 1/4SM FG OVC002 03/03 A2984 RMK AO2 LTG DSNT SE AND SW T00350035
KCQB 241335Z AUTO 04004KT 1/2SM FG OVC002 03/03 A2986 RMK AO2 LTG DSNT SE THRU SW T00350035
KCQB 241315Z AUTO 00000KT 1/4SM FG OVC002 03/03 A2987 RMK AO2 T00350035
KCQB 241255Z AUTO 01003KT 1/2SM FG OVC002 03/03 A2989 RMK AO2 LTG DSNT S T00350035
KCQB 241235Z AUTO 00000KT 1/2SM FG OVC002 03/03 A2993 RMK AO2 T00350035
KCQB 241215Z AUTO 00000KT 3/4SM BR OVC002 04/04 A2993 RMK AO2 T00350035
KCQB 241150Z AUTO 00000KT 1SM BR OVC002 03/03 A2993 RMK AO2 T00350035 10038 20035 70074
KCQB 241135Z AUTO 00000KT 1 1/4SM BR OVC002 03/03 A2994 RMK AO2 T00350035
KCQB 241115Z AUTO 00000KT 1 1/4SM BR OVC002 03/03 A2995 RMK AO2 T00350035
KCQB 241055Z AUTO 00000KT 1SM BR OVC002 04/04 A2994 RMK AO2 T00350035
KCQB 241035Z AUTO 00000KT 3/4SM BR OVC002 03/03 A2993 RMK AO2 T00350035
KCQB 241015Z AUTO 00000KT 3/4SM BR OVC002 03/03 A2993 RMK AO2 T00350035
KCQB 240955Z AUTO 00000KT 3/4SM BR OVC002 03/03 A2994 RMK AO2 T00350035
KCQB 240935Z AUTO 00000KT 1SM BR OVC002 03/03 A2995 RMK AO2 T00350035
KCQB 240915Z AUTO 00000KT 3/4SM BR OVC002 04/03 A2995 RMK AO2 T00350035
KCQB 240855Z AUTO 35004KT 2SM BR OVC002 03/03 A2996 RMK AO2 T00350035
KCQB 240835Z AUTO 32003KT 2SM BR OVC002 04/04 A2997 RMK AO2 T00360036
KCQB 240815Z AUTO 32004KT 1 1/2SM BR OVC002 04/04 A2997 RMK AO2 LTG DSNT E T00360036
KCQB 240755Z AUTO 00000KT 2SM BR OVC002 04/04 A2998 RMK AO2 T00360035
KCQB 240735Z AUTO 34006KT 3SM BR OVC002 04/04 A2998 RMK AO2 T00360036
KCQB 240715Z AUTO 00000KT 3SM BR OVC002 04/04 A3000 RMK AO2 LTG DSNT E T00370036
KCQB 240655Z AUTO 00000KT 3 1/2SM BR OVC002 04/04 A3001 RMK AO2 LTG DSNT E T00370037
KCQB 240635Z AUTO 00000KT 5SM BR OVC002 04/04 A3002 RMK AO2 LTG DSNT E AND SE T00380037
KCQB 240615Z AUTO 00000KT 3 1/2SM BR OVC002 04/04 A3001 RMK AO2 LTG DSNT E AND SE T00380037
KCQB 240555Z AUTO 36003KT 3SM -DZ BR OVC004 04/04 A3001 RMK AO2 LTG DSNT E AND SE T00380037 10039 20036 60021
KCQB 240535Z AUTO 33005KT 2 1/2SM -DZ BR OVC004 04/04 A3003 RMK AO2 LTG DSNT E T00380037
KCQB 240515Z AUTO 34005KT 2SM -DZ BR OVC004 04/04 A3003 RMK AO2 LTG DSNT E T00380037
KCQB 240455Z AUTO 34005KT 2 1/2SM BR OVC004 04/04 A3003 RMK AO2 LTG DSNT E AND SE T00380037
KCQB 240435Z AUTO 00000KT 5SM -VCTSDZ BR OVC004 04/04 A3004 RMK AO2 LTG DSNT E AND SE T00380037
KCQB 240415Z AUTO 01003KT 4SM -DZ BR OVC004 04/04 A3004 RMK AO2 LTG DSNT E T00380037
KCQB 240355Z AUTO 35003KT 4SM -DZ BR OVC004 04/04 A3005 RMK AO2 LTG DSNT SE P0001 T00390038